createdAt,value
2019-03-06T00:00:19.740Z,6.00
2019-03-06T00:01:19.735Z,5.00
2019-03-06T00:02:19.722Z,7.30
2019-03-06T00:03:19.733Z,4.70
2019-03-06T00:04:19.694Z,4.90
2019-03-06T00:05:19.685Z,6.60
2019-03-06T00:06:19.674Z,7.20
2019-03-06T00:07:19.663Z,6.20
2019-03-06T00:08:19.672Z,8.30
2019-03-06T00:09:19.652Z,6.80
2019-03-06T00:10:19.631Z,5.00
2019-03-06T00:11:19.624Z,7.90
2019-03-06T00:12:19.621Z,7.10
2019-03-06T00:13:19.629Z,6.50
2019-03-06T00:14:19.593Z,6.60
2019-03-06T00:15:19.573Z,7.80
2019-03-06T00:16:19.571Z,5.50
2019-03-06T00:17:19.570Z,5.50
2019-03-06T00:18:19.575Z,6.00
2019-03-06T00:19:19.531Z,7.40
2019-03-06T00:20:19.526Z,6.50
2019-03-06T00:21:19.556Z,8.20
2019-03-06T00:22:19.521Z,4.80
2019-03-06T00:23:19.488Z,6.00
2019-03-06T00:24:19.518Z,7.10
2019-03-06T00:25:19.466Z,6.70
2019-03-06T00:26:19.489Z,5.80
2019-03-06T00:27:19.449Z,8.80
2019-03-06T00:28:19.432Z,7.40
2019-03-06T00:29:19.442Z,6.40
2019-03-06T00:30:19.415Z,8.30
2019-03-06T00:31:19.400Z,7.70
2019-03-06T00:32:19.459Z,6.60
2019-03-06T00:33:19.386Z,6.90
2019-03-06T00:34:19.394Z,9.70
2019-03-06T00:35:19.431Z,8.30
2019-03-06T00:36:19.635Z,6.00
2019-03-06T00:37:19.338Z,6.90
2019-03-06T00:38:19.325Z,8.30
2019-03-06T00:39:19.317Z,10.10
2019-03-06T00:40:19.325Z,8.00
2019-03-06T00:41:19.297Z,9.10
2019-03-06T00:42:19.316Z,8.60
2019-03-06T00:43:19.312Z,7.50
2019-03-06T00:44:19.260Z,9.00
2019-03-06T00:45:19.268Z,6.90
2019-03-06T00:46:19.244Z,10.00
2019-03-06T00:47:19.236Z,10.20
2019-03-06T00:48:19.225Z,7.50
2019-03-06T00:49:19.214Z,8.60
2019-03-06T00:50:19.253Z,9.10
2019-03-06T00:51:19.197Z,8.30
2019-03-06T00:52:26.727Z,6.80
2019-03-06T00:53:19.162Z,7.60
2019-03-06T00:54:19.160Z,7.60
2019-03-06T00:55:19.167Z,8.10
2019-03-06T00:56:19.133Z,9.00
2019-03-06T00:57:19.154Z,6.50
2019-03-06T00:58:19.112Z,8.30
2019-03-06T00:59:19.096Z,8.90
2019-03-06T01:00:19.105Z,8.40
2019-03-06T01:01:19.121Z,7.40
2019-03-06T01:02:19.063Z,9.90
2019-03-06T01:03:19.057Z,10.10
2019-03-06T01:04:19.049Z,7.60
2019-03-06T01:05:19.063Z,9.30
2019-03-06T01:06:19.029Z,10.50
2019-03-06T01:07:19.011Z,8.70
2019-03-06T01:08:19.003Z,10.30
2019-03-06T01:09:18.989Z,8.90
2019-03-06T01:10:19.021Z,8.50
2019-03-06T01:11:18.982Z,8.90
2019-03-06T01:12:26.551Z,10.10
2019-03-06T01:13:18.950Z,9.20
2019-03-06T01:14:18.934Z,9.30
2019-03-06T01:15:18.931Z,11.10
2019-03-06T01:16:18.954Z,9.50
2019-03-06T01:17:18.929Z,10.60
2019-03-06T01:18:18.891Z,11.60
2019-03-06T01:19:18.889Z,9.60
2019-03-06T01:20:19.507Z,10.50
2019-03-06T01:21:18.878Z,9.00
2019-03-06T01:22:18.855Z,9.00
2019-03-06T01:23:18.855Z,14.40
2019-03-06T01:24:18.829Z,11.50
2019-03-06T01:25:18.829Z,9.40
2019-03-06T01:26:18.824Z,8.90
2019-03-06T01:27:18.798Z,10.40
2019-03-06T01:28:18.816Z,10.50
2019-03-06T01:29:18.786Z,9.10
2019-03-06T01:30:18.763Z,9.10
2019-03-06T01:31:18.787Z,9.70
2019-03-06T01:32:18.749Z,9.00
2019-03-06T01:33:18.749Z,10.00
2019-03-06T01:34:18.726Z,9.20
2019-03-06T01:35:18.743Z,10.60
2019-03-06T01:36:18.699Z,10.30
2019-03-06T01:37:18.707Z,9.60
2019-03-06T01:38:18.703Z,9.70
2019-03-06T01:39:18.664Z,10.10
2019-03-06T01:40:18.684Z,10.10
2019-03-06T01:41:18.645Z,10.40
2019-03-06T01:42:18.654Z,10.10
2019-03-06T01:43:18.621Z,9.00
2019-03-06T01:44:18.617Z,8.60
2019-03-06T01:45:18.660Z,8.70
2019-03-06T01:46:18.603Z,10.30
2019-03-06T01:47:18.603Z,11.30
2019-03-06T01:48:18.568Z,13.00
2019-03-06T01:49:18.564Z,11.00
2019-03-06T01:50:18.573Z,9.60
2019-03-06T01:51:18.558Z,9.20
2019-03-06T01:52:18.548Z,10.80
2019-03-06T01:53:18.512Z,11.70
2019-03-06T01:54:18.507Z,11.70
2019-03-06T01:55:18.492Z,10.40
2019-03-06T01:56:18.487Z,9.00
2019-03-06T01:57:18.489Z,10.40
2019-03-06T01:58:18.493Z,10.50
2019-03-06T01:59:18.460Z,10.10
2019-03-06T02:00:18.447Z,12.00
2019-03-06T02:01:18.430Z,10.60
2019-03-06T02:02:18.440Z,10.40
2019-03-06T02:03:18.424Z,11.50
2019-03-06T02:04:18.411Z,11.00
2019-03-06T02:05:18.424Z,11.10
2019-03-06T02:06:18.374Z,12.10
2019-03-06T02:07:18.360Z,11.40
2019-03-06T02:08:18.375Z,14.00
2019-03-06T02:09:18.358Z,11.70
2019-03-06T02:10:18.382Z,13.20
2019-03-06T02:11:25.869Z,11.90
2019-03-06T02:12:18.326Z,11.30
2019-03-06T02:13:18.302Z,11.90
2019-03-06T02:14:18.315Z,13.90
2019-03-06T02:15:25.833Z,16.50
2019-03-06T02:16:18.270Z,13.60
2019-03-06T02:17:25.794Z,10.70
2019-03-06T02:18:18.243Z,13.40
2019-03-06T02:19:27.265Z,11.70
2019-03-06T02:20:26.173Z,12.00
2019-03-06T02:21:26.771Z,11.80
2019-03-06T02:22:25.753Z,12.90
2019-03-06T02:23:26.846Z,13.20
2019-03-06T02:24:26.765Z,14.50
2019-03-06T02:25:25.742Z,12.90
2019-03-06T02:26:25.702Z,13.30
2019-03-06T02:27:25.705Z,12.40
2019-03-06T02:28:27.938Z,13.20
2019-03-06T02:29:25.676Z,11.80
2019-03-06T02:30:25.665Z,13.50
2019-03-06T02:31:25.666Z,13.40
2019-03-06T02:32:25.692Z,15.10
2019-03-06T02:33:25.636Z,12.50
2019-03-06T02:34:27.073Z,13.40
2019-03-06T02:35:25.605Z,15.10
2019-03-06T02:36:26.947Z,13.20
2019-03-06T02:37:26.606Z,14.50
2019-03-06T02:38:25.594Z,13.80
2019-03-06T02:39:26.781Z,13.40
2019-03-06T02:40:26.585Z,16.60
2019-03-06T02:41:25.547Z,13.20
2019-03-06T02:42:26.544Z,15.30
2019-03-06T02:43:17.976Z,13.30
2019-03-06T02:44:17.987Z,14.30
2019-03-06T02:45:17.956Z,14.40
2019-03-06T02:46:17.948Z,16.90
2019-03-06T02:47:17.957Z,14.00
2019-03-06T02:48:17.925Z,14.50
2019-03-06T02:49:17.938Z,13.40
2019-03-06T02:50:17.910Z,13.60
2019-03-06T02:51:17.892Z,16.90
2019-03-06T02:52:17.881Z,12.20
2019-03-06T02:53:17.874Z,16.00
2019-03-06T02:54:17.881Z,17.40
2019-03-06T02:55:17.871Z,14.80
2019-03-06T02:56:17.848Z,13.30
2019-03-06T02:57:17.830Z,14.20
2019-03-06T02:58:17.828Z,16.30
2019-03-06T02:59:17.825Z,15.00
2019-03-06T03:00:17.797Z,14.40
2019-03-06T03:01:17.815Z,15.00
2019-03-06T03:02:17.783Z,15.60
2019-03-06T03:03:17.763Z,14.90
2019-03-06T03:04:17.771Z,14.60
2019-03-06T03:05:17.762Z,13.90
2019-03-06T03:06:17.768Z,13.60
2019-03-06T03:07:17.726Z,14.70
2019-03-06T03:08:17.708Z,15.40
2019-03-06T03:09:17.731Z,15.60
2019-03-06T03:10:17.710Z,15.60
2019-03-06T03:11:17.675Z,16.50
2019-03-06T03:12:17.673Z,14.70
2019-03-06T03:13:17.686Z,18.70
2019-03-06T03:14:17.689Z,14.20
2019-03-06T03:15:17.699Z,16.30
2019-03-06T03:16:17.630Z,17.20
2019-03-06T03:17:17.618Z,15.30
2019-03-06T03:18:17.609Z,17.10
2019-03-06T03:19:17.591Z,14.90
2019-03-06T03:20:17.626Z,17.10
2019-03-06T03:21:17.601Z,15.00
2019-03-06T03:22:25.117Z,16.80
2019-03-06T03:23:17.551Z,16.80
2019-03-06T03:24:17.532Z,17.50
2019-03-06T03:25:17.552Z,14.90
2019-03-06T03:26:17.515Z,16.60
2019-03-06T03:27:17.505Z,17.30
2019-03-06T03:28:19.744Z,14.20
2019-03-06T03:29:17.493Z,16.80
2019-03-06T03:30:17.502Z,16.00
2019-03-06T03:31:17.474Z,16.90
2019-03-06T03:32:17.476Z,16.90
2019-03-06T03:33:17.438Z,15.60
2019-03-06T03:34:17.430Z,16.80
2019-03-06T03:35:17.440Z,16.80
2019-03-06T03:36:17.413Z,14.80
2019-03-06T03:37:17.407Z,16.20
2019-03-06T03:38:17.391Z,17.70
2019-03-06T03:39:17.377Z,16.80
2019-03-06T03:40:17.391Z,17.50
2019-03-06T03:41:17.351Z,13.90
2019-03-06T03:42:17.352Z,14.60
2019-03-06T03:43:17.340Z,16.30
2019-03-06T03:44:17.318Z,17.10
2019-03-06T03:45:17.332Z,14.50
2019-03-06T03:46:17.332Z,16.10
2019-03-06T03:47:17.295Z,14.40
2019-03-06T03:48:17.285Z,14.40
2019-03-06T03:49:17.273Z,16.90
2019-03-06T03:50:17.340Z,16.20
2019-03-06T03:51:17.242Z,15.60
2019-03-06T03:52:17.251Z,14.80
2019-03-06T03:53:17.259Z,19.70
2019-03-06T03:54:17.224Z,16.30
2019-03-06T03:55:17.209Z,15.20
2019-03-06T03:56:17.215Z,14.70
2019-03-06T03:57:17.187Z,18.20
2019-03-06T03:58:17.174Z,14.70
2019-03-06T03:59:17.158Z,15.00
2019-03-06T04:00:17.169Z,14.60
2019-03-06T04:01:17.166Z,17.00
2019-03-06T04:02:17.145Z,15.00
2019-03-06T04:03:17.119Z,17.10
2019-03-06T04:04:17.112Z,13.20
2019-03-06T04:05:17.095Z,15.00
2019-03-06T04:06:17.100Z,14.20
2019-03-06T04:07:17.096Z,13.80
2019-03-06T04:08:17.066Z,14.10
2019-03-06T04:09:17.057Z,14.10
2019-03-06T04:10:17.040Z,16.20
2019-03-06T04:11:17.030Z,14.00
2019-03-06T04:12:17.084Z,14.40
2019-03-06T04:13:17.021Z,13.00
2019-03-06T04:14:17.005Z,14.80
2019-03-06T04:15:16.984Z,14.50
2019-03-06T04:16:16.971Z,12.00
2019-03-06T04:17:17.018Z,14.60
2019-03-06T04:18:16.951Z,13.20
2019-03-06T04:19:16.943Z,14.70
2019-03-06T04:20:16.948Z,14.50
2019-03-06T04:21:16.944Z,13.20
2019-03-06T04:22:16.942Z,14.20
2019-03-06T04:23:16.896Z,15.20
2019-03-06T04:24:16.898Z,17.60
2019-03-06T04:25:16.886Z,13.90
2019-03-06T04:26:16.882Z,15.60
2019-03-06T04:27:16.870Z,11.90
2019-03-06T04:28:16.851Z,13.00
2019-03-06T04:29:16.841Z,12.60
2019-03-06T04:30:16.842Z,12.10
2019-03-06T04:31:16.809Z,13.30
2019-03-06T04:32:16.835Z,15.70
2019-03-06T04:33:16.828Z,12.10
2019-03-06T04:34:16.775Z,13.40
2019-03-06T04:35:16.772Z,15.10
2019-03-06T04:36:16.761Z,15.50
2019-03-06T04:37:16.773Z,15.90
2019-03-06T04:38:16.754Z,13.20
2019-03-06T04:39:16.731Z,13.90
2019-03-06T04:40:16.725Z,13.20
2019-03-06T04:41:16.717Z,15.60
2019-03-06T04:42:16.692Z,15.40
2019-03-06T04:43:16.769Z,12.90
2019-03-06T04:44:16.675Z,13.60
2019-03-06T04:45:16.659Z,12.10
2019-03-06T04:46:16.648Z,16.40
2019-03-06T04:47:16.657Z,16.30
2019-03-06T04:48:16.656Z,13.10
2019-03-06T04:49:16.626Z,12.10
2019-03-06T04:50:16.616Z,13.70
2019-03-06T04:51:16.601Z,13.60
2019-03-06T04:52:16.620Z,15.40
2019-03-06T04:53:16.601Z,14.10
2019-03-06T04:54:16.566Z,18.20
2019-03-06T04:55:16.595Z,11.90
2019-03-06T04:56:16.540Z,12.70
2019-03-06T04:57:16.535Z,14.80
2019-03-06T04:58:16.551Z,13.30
2019-03-06T04:59:16.508Z,11.00
2019-03-06T05:00:16.533Z,11.60
2019-03-06T05:01:24.071Z,13.40
2019-03-06T05:02:16.477Z,14.20
2019-03-06T05:03:16.486Z,13.50
2019-03-06T05:04:16.463Z,11.50
2019-03-06T05:05:16.446Z,13.20
2019-03-06T05:06:16.435Z,13.50
2019-03-06T05:07:16.423Z,13.10
2019-03-06T05:08:16.431Z,12.20
2019-03-06T05:09:16.422Z,12.10
2019-03-06T05:10:16.389Z,15.10
2019-03-06T05:11:16.390Z,12.10
2019-03-06T05:12:16.371Z,13.30
2019-03-06T05:13:16.425Z,12.80
2019-03-06T05:14:16.406Z,13.20
2019-03-06T05:15:16.339Z,13.50
2019-03-06T05:16:16.330Z,13.70
2019-03-06T05:17:16.313Z,11.90
2019-03-06T05:18:16.319Z,12.50
2019-03-06T05:19:16.342Z,13.20
2019-03-06T05:20:16.333Z,14.30
2019-03-06T05:21:16.276Z,14.80
2019-03-06T05:22:16.262Z,13.90
2019-03-06T05:23:16.284Z,12.60
2019-03-06T05:24:16.260Z,14.30
2019-03-06T05:25:16.242Z,14.10
2019-03-06T05:27:36.334Z,15.00
2019-03-06T05:28:36.396Z,13.50
2019-03-06T05:29:36.293Z,14.90
2019-03-06T05:32:05.054Z,15.10
2019-03-06T05:33:05.045Z,15.60
2019-03-06T05:34:14.767Z,12.30
2019-03-06T05:35:05.010Z,15.50
2019-03-06T05:36:05.001Z,13.50
2019-03-06T05:37:05.002Z,16.20
2019-03-06T05:38:04.982Z,14.40
2019-03-06T05:39:04.990Z,14.30
2019-03-06T05:40:04.957Z,14.10
2019-03-06T05:41:04.955Z,15.70
2019-03-06T05:42:04.939Z,15.50
2019-03-06T05:43:04.936Z,15.90
2019-03-06T05:44:04.943Z,14.20
2019-03-06T05:45:04.904Z,15.40
2019-03-06T05:46:04.901Z,16.30
2019-03-06T05:47:04.934Z,19.00
2019-03-06T05:48:04.872Z,17.90
2019-03-06T05:49:04.860Z,15.80
2019-03-06T05:50:04.875Z,14.90
2019-03-06T05:51:04.844Z,17.90
2019-03-06T05:52:04.831Z,16.90
2019-03-06T05:53:04.829Z,15.60
2019-03-06T05:54:04.813Z,17.10
2019-03-06T05:55:04.815Z,16.50
2019-03-06T05:56:04.789Z,19.50
2019-03-06T05:57:04.781Z,15.60
2019-03-06T05:58:04.773Z,17.60
2019-03-06T05:59:04.752Z,18.40
2019-03-06T06:00:04.771Z,15.30
2019-03-06T06:01:04.744Z,14.80
2019-03-06T06:02:04.768Z,17.00
2019-03-06T06:03:04.713Z,15.80
2019-03-06T06:04:04.724Z,18.50
2019-03-06T06:05:04.734Z,16.40
2019-03-06T06:06:04.682Z,14.70
2019-03-06T06:07:04.670Z,17.00
2019-03-06T06:08:04.667Z,16.90
2019-03-06T06:09:04.646Z,16.60
2019-03-06T06:10:04.635Z,16.50
2019-03-06T06:11:04.645Z,17.80
2019-03-06T06:12:12.193Z,17.40
2019-03-06T06:13:04.607Z,16.20
2019-03-06T06:14:04.608Z,18.60
2019-03-06T06:15:04.582Z,16.40
2019-03-06T06:16:04.598Z,16.00
2019-03-06T06:17:04.591Z,16.10
2019-03-06T06:18:04.560Z,19.20
2019-03-06T06:19:04.541Z,18.50
2019-03-06T06:20:04.529Z,16.50
2019-03-06T06:21:04.537Z,16.60
2019-03-06T06:22:04.511Z,16.20
2019-03-06T06:23:04.528Z,17.40
2019-03-06T06:24:04.485Z,14.80
2019-03-06T06:25:04.489Z,16.40
2019-03-06T06:26:04.505Z,19.50
2019-03-06T06:27:04.515Z,18.10
2019-03-06T06:28:04.502Z,16.00
2019-03-06T06:29:04.438Z,19.10
2019-03-06T06:30:04.433Z,17.40
2019-03-06T06:31:04.439Z,17.90
2019-03-06T06:32:04.399Z,16.40
2019-03-06T06:33:04.387Z,17.10
2019-03-06T06:34:04.377Z,15.40
2019-03-06T06:35:04.367Z,16.80
2019-03-06T06:36:04.390Z,15.50
2019-03-06T06:37:04.385Z,17.90
2019-03-06T06:38:04.335Z,15.70
2019-03-06T06:39:04.328Z,17.70
2019-03-06T06:40:04.324Z,16.30
2019-03-06T06:41:04.353Z,12.60
2019-03-06T06:42:04.297Z,13.80
2019-03-06T06:43:04.280Z,15.30
2019-03-06T06:44:04.286Z,16.30
2019-03-06T06:45:04.304Z,19.80
2019-03-06T06:46:04.279Z,16.70
2019-03-06T06:47:04.237Z,19.40
2019-03-06T06:48:04.254Z,17.90
2019-03-06T06:49:04.221Z,14.90
2019-03-06T06:50:04.223Z,16.20
2019-03-06T06:51:04.219Z,17.70
2019-03-06T06:52:04.192Z,16.10
2019-03-06T06:53:04.203Z,15.40
2019-03-06T06:54:04.171Z,19.40
2019-03-06T06:55:04.156Z,19.50
2019-03-06T06:56:04.151Z,19.20
2019-03-06T06:57:04.159Z,17.90
2019-03-06T06:58:04.123Z,17.30
2019-03-06T06:59:04.120Z,15.20
2019-03-06T07:00:04.129Z,17.30
2019-03-06T07:01:04.099Z,16.70
2019-03-06T07:02:04.094Z,17.00
2019-03-06T07:03:04.067Z,15.60
2019-03-06T07:04:04.063Z,16.10
2019-03-06T07:05:04.105Z,16.30
2019-03-06T07:06:04.076Z,18.10
2019-03-06T07:07:04.089Z,18.00
2019-03-06T07:08:04.024Z,16.50
2019-03-06T07:09:04.196Z,14.90
2019-03-06T07:10:04.015Z,14.50
2019-03-06T07:11:03.997Z,16.40
2019-03-06T07:12:03.994Z,15.80
2019-03-06T07:13:04.022Z,16.50
2019-03-06T07:14:04.025Z,15.20
2019-03-06T07:15:03.937Z,15.40
2019-03-06T07:16:03.941Z,17.00
2019-03-06T07:17:03.979Z,14.30
2019-03-06T07:18:03.925Z,15.40
2019-03-06T07:19:03.900Z,14.20
2019-03-06T07:20:03.886Z,15.40
2019-03-06T07:21:03.875Z,15.50
2019-03-06T07:22:03.883Z,14.40
2019-03-06T07:23:03.907Z,14.20
2019-03-06T07:24:03.909Z,14.00
2019-03-06T07:25:03.834Z,15.70
2019-03-06T07:26:03.820Z,14.30
2019-03-06T07:27:03.832Z,18.50
2019-03-06T07:28:03.816Z,14.90
2019-03-06T07:29:03.793Z,14.80
2019-03-06T07:30:03.775Z,14.60
2019-03-06T07:31:03.783Z,13.90
2019-03-06T07:32:03.756Z,15.50
2019-03-06T07:33:03.765Z,17.80
2019-03-06T07:34:03.737Z,14.90
2019-03-06T07:35:03.774Z,13.10
2019-03-06T07:36:03.712Z,13.40
2019-03-06T07:37:03.785Z,13.70
2019-03-06T07:38:03.714Z,18.70
2019-03-06T07:39:03.686Z,12.90
2019-03-06T07:40:03.672Z,15.50
2019-03-06T07:41:03.661Z,15.20
2019-03-06T07:42:03.690Z,13.80
2019-03-06T07:43:03.635Z,15.60
2019-03-06T07:44:03.645Z,13.50
2019-03-06T07:45:03.612Z,16.10
2019-03-06T07:46:05.626Z,12.30
2019-03-06T07:47:03.593Z,14.40
2019-03-06T07:48:03.582Z,13.70
2019-03-06T07:49:03.603Z,14.00
2019-03-06T07:50:03.564Z,11.20
2019-03-06T07:51:03.555Z,12.60
2019-03-06T07:52:03.542Z,11.20
2019-03-06T07:53:03.553Z,12.90
2019-03-06T07:54:03.580Z,12.30
2019-03-06T07:55:03.509Z,10.10
2019-03-06T07:56:03.496Z,12.90
2019-03-06T07:57:03.499Z,10.00
2019-03-06T07:58:03.480Z,11.20
2019-03-06T07:59:03.467Z,11.30
2019-03-06T08:00:03.475Z,10.20
2019-03-06T08:01:03.444Z,13.80
2019-03-06T08:02:03.441Z,13.50
2019-03-06T08:03:03.425Z,11.40
2019-03-06T08:04:03.440Z,11.60
2019-03-06T08:05:03.450Z,9.60
2019-03-06T08:06:03.420Z,12.70
2019-03-06T08:07:03.415Z,11.20
2019-03-06T08:08:03.365Z,9.10
2019-03-06T08:09:03.357Z,10.60
2019-03-06T08:10:03.382Z,8.60
2019-03-06T08:11:03.344Z,9.10
2019-03-06T08:12:03.324Z,10.20
2019-03-06T08:13:03.320Z,8.40
2019-03-06T08:14:03.328Z,6.90
2019-03-06T08:15:03.311Z,8.00
2019-03-06T08:16:03.281Z,9.30
2019-03-06T08:17:03.275Z,10.60
2019-03-06T08:18:03.288Z,6.60
2019-03-06T08:19:03.248Z,8.20
2019-03-06T08:20:03.259Z,7.40
2019-03-06T08:21:03.234Z,6.30
2019-03-06T08:22:03.322Z,5.50
2019-03-06T08:23:03.208Z,8.00
2019-03-06T08:24:03.225Z,8.50
2019-03-06T08:25:03.225Z,6.70
2019-03-06T08:26:03.172Z,8.80
2019-03-06T08:27:03.163Z,7.20
2019-03-06T08:28:03.157Z,7.10
2019-03-06T08:29:03.149Z,5.90
2019-03-06T08:30:03.164Z,6.60
2019-03-06T08:31:03.138Z,7.20
2019-03-06T08:32:03.106Z,5.60
2019-03-06T08:33:03.102Z,8.40
2019-03-06T08:34:03.085Z,6.90
2019-03-06T08:35:03.078Z,6.50
2019-03-06T08:36:03.085Z,7.40
2019-03-06T08:37:03.070Z,6.30
2019-03-06T08:38:03.052Z,7.80
2019-03-06T08:39:03.045Z,7.50
2019-03-06T08:40:03.022Z,6.50
2019-03-06T08:41:04.947Z,7.40
2019-03-06T08:42:02.999Z,5.80
2019-03-06T08:43:02.985Z,7.30
2019-03-06T08:44:02.983Z,8.50
2019-03-06T08:45:02.965Z,5.70
2019-03-06T08:46:02.992Z,8.50
2019-03-06T08:47:02.945Z,7.10
2019-03-06T08:48:02.933Z,9.30
2019-03-06T08:49:02.947Z,8.60
2019-03-06T08:50:02.914Z,6.70
2019-03-06T08:51:02.915Z,8.10
2019-03-06T08:52:02.926Z,6.00
2019-03-06T08:53:02.879Z,7.40
2019-03-06T08:54:02.884Z,6.00
2019-03-06T08:55:02.859Z,4.00
2019-03-06T08:56:02.885Z,9.30
2019-03-06T08:57:02.845Z,6.50
2019-03-06T08:58:02.835Z,7.00
2019-03-06T08:59:02.852Z,6.80
2019-03-06T09:00:02.806Z,7.60
2019-03-06T09:01:02.796Z,7.90
2019-03-06T09:02:02.802Z,8.60
2019-03-06T09:03:02.802Z,6.90
2019-03-06T09:04:02.762Z,7.90
2019-03-06T09:05:02.759Z,7.30
2019-03-06T09:06:02.765Z,6.20
2019-03-06T09:07:02.755Z,7.00
2019-03-06T09:08:02.725Z,6.30
2019-03-06T09:09:02.710Z,5.60
2019-03-06T09:10:02.704Z,5.00
2019-03-06T09:11:03.368Z,7.50
2019-03-06T09:12:02.700Z,4.90
2019-03-06T09:13:02.676Z,5.30
2019-03-06T09:14:02.661Z,6.10
2019-03-06T09:15:02.651Z,3.50
2019-03-06T09:16:02.637Z,4.00
2019-03-06T09:17:02.648Z,5.20
2019-03-06T09:18:09.010Z,6.00
2019-03-06T09:19:03.652Z,6.80
2019-03-06T09:20:10.137Z,5.20
2019-03-06T09:21:02.582Z,6.30
2019-03-06T09:22:02.566Z,5.60
2019-03-06T09:23:02.591Z,4.60
2019-03-06T09:24:02.607Z,4.60
2019-03-06T09:25:02.537Z,4.30
2019-03-06T09:26:02.529Z,5.80
2019-03-06T09:27:02.534Z,6.70
2019-03-06T09:28:02.520Z,4.00
2019-03-06T09:29:02.505Z,5.30
2019-03-06T09:30:02.483Z,5.30
2019-03-06T09:31:02.469Z,6.20
2019-03-06T09:32:02.471Z,4.50
2019-03-06T09:33:02.482Z,4.40
2019-03-06T09:34:02.441Z,4.70
2019-03-06T09:35:02.449Z,5.20
2019-03-06T09:36:02.419Z,5.50
2019-03-06T09:37:02.406Z,4.60
2019-03-06T09:38:10.790Z,5.80
2019-03-06T09:39:03.389Z,8.50
2019-03-06T09:40:02.380Z,3.20
2019-03-06T09:41:02.362Z,6.80
2019-03-06T09:42:02.348Z,7.50
2019-03-06T09:43:02.358Z,4.90
2019-03-06T09:44:02.350Z,6.20
2019-03-06T09:45:02.329Z,6.40
2019-03-06T09:46:02.379Z,4.50
2019-03-06T09:47:02.321Z,4.90
2019-03-06T09:48:02.303Z,4.50
2019-03-06T09:49:10.923Z,6.10
2019-03-06T09:50:03.264Z,4.10
2019-03-06T09:51:02.253Z,9.60
2019-03-06T09:52:02.253Z,6.20
2019-03-06T09:53:02.270Z,3.40
2019-03-06T09:54:02.216Z,5.40
2019-03-06T09:55:02.287Z,5.30
2019-03-06T09:56:02.264Z,6.40
2019-03-06T09:57:02.202Z,4.30
2019-03-06T09:58:02.178Z,5.50
2019-03-06T09:59:02.186Z,5.40
2019-03-06T10:00:02.162Z,6.60
2019-03-06T10:01:02.141Z,6.10
2019-03-06T10:02:06.662Z,3.80
2019-03-06T10:03:03.120Z,5.60
2019-03-06T10:04:02.131Z,3.60
2019-03-06T10:05:02.101Z,4.10
2019-03-06T10:06:02.117Z,6.20
2019-03-06T10:07:02.085Z,5.00
2019-03-06T10:08:02.070Z,5.80
2019-03-06T10:09:02.083Z,3.60
2019-03-06T10:10:02.047Z,6.00
2019-03-06T10:11:02.048Z,3.70
2019-03-06T10:12:02.030Z,5.40
2019-03-06T10:13:03.450Z,5.20
2019-03-06T10:14:02.027Z,5.70
2019-03-06T10:15:01.995Z,8.70
2019-03-06T10:16:01.984Z,4.20
2019-03-06T10:17:01.978Z,4.20
2019-03-06T10:18:01.962Z,9.40
2019-03-06T10:19:01.969Z,5.60
2019-03-06T10:20:01.939Z,7.20
2019-03-06T10:21:02.025Z,4.50
2019-03-06T10:22:01.915Z,5.50
2019-03-06T10:23:01.904Z,5.00
2019-03-06T10:24:01.917Z,8.70
2019-03-06T10:25:01.886Z,7.40
2019-03-06T10:26:01.876Z,4.60
2019-03-06T10:27:01.875Z,6.20
2019-03-06T10:28:06.356Z,6.20
2019-03-06T10:29:02.870Z,6.50
2019-03-06T10:30:01.830Z,4.90
2019-03-06T10:31:02.638Z,6.10
2019-03-06T10:32:01.818Z,8.20
2019-03-06T10:33:01.872Z,5.40
2019-03-06T10:34:01.787Z,6.80
2019-03-06T10:35:01.804Z,7.30
2019-03-06T10:36:01.781Z,4.80
2019-03-06T10:37:01.799Z,5.50
2019-03-06T10:38:01.745Z,6.00
2019-03-06T10:39:01.739Z,5.20
2019-03-06T10:40:01.764Z,5.90
2019-03-06T10:41:01.710Z,6.10
2019-03-06T10:42:01.730Z,7.40
2019-03-06T10:43:01.747Z,5.80
2019-03-06T10:44:01.686Z,4.60
2019-03-06T10:45:01.698Z,6.50
2019-03-06T10:46:01.701Z,4.70
2019-03-06T10:47:01.655Z,7.60
2019-03-06T10:48:01.643Z,4.70
2019-03-06T10:49:01.703Z,7.00
2019-03-06T10:50:01.642Z,8.00
2019-03-06T10:51:01.606Z,5.20
2019-03-06T10:52:01.601Z,7.50
2019-03-06T10:53:01.592Z,5.10
2019-03-06T10:54:01.577Z,6.70
2019-03-06T10:55:01.573Z,7.20
2019-03-06T10:56:01.602Z,5.20
2019-03-06T10:57:01.539Z,5.70
2019-03-06T10:58:01.563Z,8.50
2019-03-06T10:59:01.524Z,7.20
2019-03-06T11:00:01.511Z,4.80
2019-03-06T11:01:01.556Z,8.00
2019-03-06T11:02:01.487Z,6.20
2019-03-06T11:03:01.479Z,8.10
2019-03-06T11:04:01.464Z,8.10
2019-03-06T11:05:01.454Z,5.40
2019-03-06T11:06:01.466Z,5.80
2019-03-06T11:07:01.435Z,5.20
2019-03-06T11:08:01.430Z,5.80
2019-03-06T11:09:01.416Z,3.80
2019-03-06T11:10:01.646Z,8.70
2019-03-06T11:11:01.415Z,6.90
2019-03-06T11:12:01.391Z,3.00
2019-03-06T11:13:01.368Z,9.40
2019-03-06T11:14:06.238Z,7.40
2019-03-06T11:15:02.462Z,7.70
2019-03-06T11:16:01.391Z,5.60
2019-03-06T11:17:01.334Z,5.50
2019-03-06T11:18:01.313Z,8.40
2019-03-06T11:19:01.310Z,8.60
2019-03-06T11:20:01.293Z,7.70
2019-03-06T11:21:01.303Z,5.80
2019-03-06T11:22:01.284Z,6.70
2019-03-06T11:23:01.267Z,4.10
2019-03-06T11:24:01.255Z,5.10
2019-03-06T11:25:01.261Z,6.20
2019-03-06T11:26:01.967Z,4.30
2019-03-06T11:27:01.222Z,6.90
2019-03-06T11:28:01.216Z,5.80
2019-03-06T11:29:01.203Z,6.00
2019-03-06T11:30:01.216Z,7.20
2019-03-06T11:31:01.194Z,4.60
2019-03-06T11:32:01.171Z,6.40
2019-03-06T11:33:01.158Z,4.60
2019-03-06T11:34:01.150Z,5.70
2019-03-06T11:35:01.144Z,5.20
2019-03-06T11:36:01.145Z,4.20
2019-03-06T11:37:01.118Z,4.50
2019-03-06T11:38:01.098Z,6.90
2019-03-06T11:39:01.089Z,6.60
2019-03-06T11:40:01.115Z,4.20
2019-03-06T11:41:01.090Z,5.70
2019-03-06T11:42:01.054Z,8.70
2019-03-06T11:43:01.047Z,5.20
2019-03-06T11:44:01.047Z,3.10
2019-03-06T11:45:01.031Z,6.10
2019-03-06T11:46:01.038Z,6.20
2019-03-06T11:47:01.394Z,6.30
2019-03-06T11:48:00.992Z,5.00
2019-03-06T11:49:00.987Z,4.40
2019-03-06T11:50:00.971Z,6.10
2019-03-06T11:51:00.984Z,3.00
2019-03-06T11:52:00.963Z,4.80
2019-03-06T11:53:00.954Z,5.20
2019-03-06T11:54:00.929Z,4.70
2019-03-06T11:55:06.182Z,6.20
2019-03-06T11:56:01.942Z,6.90
2019-03-06T11:57:00.893Z,6.80
2019-03-06T11:58:00.913Z,4.00
2019-03-06T11:59:00.892Z,7.20
2019-03-06T12:00:00.866Z,2.80
2019-03-06T12:01:00.874Z,5.30
2019-03-06T12:02:00.855Z,6.00
2019-03-06T12:03:00.928Z,4.50
2019-03-06T12:04:00.821Z,6.80
2019-03-06T12:05:00.879Z,3.70
2019-03-06T12:06:00.816Z,6.30
2019-03-06T12:07:00.821Z,6.60
2019-03-06T12:08:00.784Z,2.70
2019-03-06T12:09:00.767Z,3.40
2019-03-06T12:10:00.757Z,5.60
2019-03-06T12:11:00.787Z,5.00
2019-03-06T12:12:00.736Z,5.50
2019-03-06T12:13:00.723Z,7.70
2019-03-06T12:14:00.732Z,3.60
2019-03-06T12:15:00.706Z,4.40
2019-03-06T12:16:00.717Z,5.20
2019-03-06T12:17:00.738Z,4.00
2019-03-06T12:18:00.679Z,5.30
2019-03-06T12:19:00.656Z,3.90
2019-03-06T12:20:07.837Z,5.50
2019-03-06T12:21:01.653Z,3.50
2019-03-06T12:22:00.626Z,5.40
2019-03-06T12:23:08.152Z,4.20
2019-03-06T12:24:00.600Z,4.70
2019-03-06T12:25:00.594Z,4.90
2019-03-06T12:26:00.585Z,7.40
2019-03-06T12:27:00.586Z,6.40
2019-03-06T12:28:00.586Z,4.00
2019-03-06T12:29:00.548Z,4.70
2019-03-06T12:30:00.535Z,4.10
2019-03-06T12:31:00.549Z,6.20
2019-03-06T12:32:00.532Z,5.10
2019-03-06T12:33:00.501Z,5.50
2019-03-06T12:34:00.503Z,5.30
2019-03-06T12:35:00.490Z,5.90
2019-03-06T12:36:00.470Z,6.40
2019-03-06T12:37:00.477Z,5.20
2019-03-06T12:38:00.456Z,4.40
2019-03-06T12:39:00.455Z,3.70
2019-03-06T12:40:00.429Z,4.10
2019-03-06T12:41:00.430Z,5.10
2019-03-06T12:42:00.426Z,7.00
2019-03-06T12:43:00.398Z,5.50
2019-03-06T12:44:00.388Z,5.70
2019-03-06T12:45:00.435Z,4.90
2019-03-06T12:46:00.360Z,5.00
2019-03-06T12:47:00.403Z,6.00
2019-03-06T12:48:00.342Z,5.90
2019-03-06T12:49:00.335Z,3.00
2019-03-06T12:50:05.798Z,5.40
2019-03-06T12:51:01.315Z,4.20
2019-03-06T12:52:00.309Z,4.70
2019-03-06T12:53:00.305Z,4.40
2019-03-06T12:54:00.275Z,3.00
2019-03-06T12:55:00.303Z,5.20
2019-03-06T12:56:00.253Z,5.80
2019-03-06T12:57:00.244Z,4.00
2019-03-06T12:58:00.288Z,5.90
2019-03-06T12:59:00.224Z,5.20
2019-03-06T13:00:00.294Z,4.50
2019-03-06T13:01:00.214Z,4.30
2019-03-06T13:02:00.187Z,3.70
2019-03-06T13:03:00.193Z,4.70
2019-03-06T13:04:00.183Z,4.10
2019-03-06T13:05:00.336Z,4.90
2019-03-06T13:06:00.147Z,5.10
2019-03-06T13:07:00.133Z,4.20
2019-03-06T13:08:00.185Z,4.50